Time;durP1;ratioP1;P1;durP2;ratioP2;P2;SDS_P1;SDS_P2;PMS_P1;PMS_P2;Temp;Humidity;BMP_temperature;BMP_pressure;BME280_temperature;BME280_humidity;BME280_pressure;Samples;Min_cycle;Max_cycle;Signal;HPM_P1;HPM_P2
2021/10/08 00:00:30;;;;;;;;;9.50;7.50;;;;;20.33;100.00;102316.91;5024066;27;45429;-83
2021/10/08 00:02:56;;;;;;;;;8.00;7.00;;;;;20.32;100.00;102326.78;5028050;28;45981;-83
2021/10/08 00:05:21;;;;;;;;;8.50;6.75;;;;;20.32;100.00;102313.38;5030959;28;45471;-83
2021/10/08 00:07:47;;;;;;;;;10.00;8.00;;;;;20.29;100.00;102310.13;5036148;28;45290;-83
2021/10/08 00:10:13;;;;;;;;;9.50;7.00;;;;;20.30;100.00;102322.56;5035893;28;45317;-83
2021/10/08 00:12:38;;;;;;;;;12.75;8.25;;;;;20.31;100.00;102319.72;5035775;28;45329;-83
2021/10/08 00:15:05;;;;;;;;;8.00;7.00;;;;;20.32;100.00;102313.38;5051248;28;45495;-83
2021/10/08 00:17:30;;;;;;;;;7.75;6.50;;;;;20.42;100.00;102326.91;5041487;28;47211;-83
2021/10/08 00:19:55;;;;;;;;;10.25;7.75;;;;;20.47;100.00;102322.88;5051174;28;45669;-84
2021/10/08 00:22:21;;;;;;;;;9.00;7.75;;;;;20.46;100.00;102318.47;5035717;28;45559;-83
2021/10/08 00:24:46;;;;;;;;;8.75;6.00;;;;;20.38;100.00;102312.91;5036945;28;45336;-83
2021/10/08 00:27:12;;;;;;;;;10.50;9.25;;;;;20.35;100.00;102315.84;5038603;28;46341;-83
2021/10/08 00:29:37;;;;;;;;;7.00;5.75;;;;;20.37;100.00;102319.25;5038319;28;45501;-83
2021/10/08 00:32:03;;;;;;;;;10.75;6.75;;;;;20.32;100.00;102316.06;5039118;28;45421;-83
2021/10/08 00:34:28;;;;;;;;;8.00;7.00;;;;;20.36;100.00;102322.91;5036762;28;45500;-83
2021/10/08 00:36:54;;;;;;;;;7.50;7.50;;;;;20.33;100.00;102327.66;5038823;28;46275;-83
2021/10/08 00:39:19;;;;;;;;;9.00;6.75;;;;;20.32;100.00;102324.09;5037191;28;45471;-83
2021/10/08 00:41:46;;;;;;;;;8.75;7.00;;;;;20.33;100.00;102323.13;5038631;28;45647;-83
2021/10/08 00:44:11;;;;;;;;;11.00;9.00;;;;;20.36;100.00;102319.38;5038555;28;45451;-83
2021/10/08 00:46:38;;;;;;;;;10.50;8.00;;;;;20.38;100.00;102318.28;5053980;28;48076;-83
2021/10/08 00:49:04;;;;;;;;;11.00;9.25;;;;;20.38;100.00;102317.44;5038535;28;45512;-83
2021/10/08 00:51:29;;;;;;;;;10.50;9.00;;;;;20.38;100.00;102322.78;5045342;28;45320;-83
2021/10/08 00:53:55;;;;;;;;;17.75;11.50;;;;;20.38;100.00;102320.97;5038819;28;45526;-83
2021/10/08 00:56:20;;;;;;;;;10.75;9.50;;;;;20.40;100.00;102324.34;5038438;28;45344;-83
2021/10/08 00:58:47;;;;;;;;;14.25;12.75;;;;;20.41;100.00;102326.06;5036835;27;45918;-83
2021/10/08 01:01:16;;;;;;;;;12.00;11.50;;;;;20.41;100.00;102327.88;5038204;28;45481;-83
2021/10/08 01:03:42;;;;;;;;;12.75;11.50;;;;;20.36;100.00;102330.97;5038067;28;45419;-83
2021/10/08 01:06:07;;;;;;;;;12.50;11.25;;;;;20.35;100.00;102336.47;5052375;28;46343;-83
2021/10/08 01:08:33;;;;;;;;;17.25;13.00;;;;;20.35;100.00;102333.78;5038232;28;45246;-83
2021/10/08 01:10:59;;;;;;;;;16.25;13.50;;;;;20.34;100.00;102332.03;5038592;28;45849;-83
2021/10/08 01:13:24;;;;;;;;;11.00;9.75;;;;;20.30;100.00;102334.13;5038144;28;45491;-83
2021/10/08 01:15:53;;;;;;;;;10.75;9.00;;;;;20.31;100.00;102335.81;5038083;28;46198;-83
2021/10/08 01:18:18;;;;;;;;;15.50;11.50;;;;;20.30;100.00;102336.81;5038164;28;45421;-83
2021/10/08 01:20:44;;;;;;;;;9.50;9.25;;;;;20.31;100.00;102333.13;5038263;28;45472;-83
2021/10/08 01:23:09;;;;;;;;;9.50;8.50;;;;;20.31;100.00;102332.28;5038156;28;45330;-83
2021/10/08 01:25:35;;;;;;;;;12.25;9.50;;;;;20.30;100.00;102330.59;5038025;28;45411;-83
2021/10/08 01:28:02;;;;;;;;;13.50;9.75;;;;;20.30;100.00;102331.47;5038087;28;45363;-83
2021/10/08 01:30:28;;;;;;;;;10.00;8.25;;;;;20.24;100.00;102326.56;5036791;28;45475;-83
2021/10/08 01:32:53;;;;;;;;;7.50;6.50;;;;;20.21;100.00;102328.69;5038088;28;45549;-83
2021/10/08 01:35:20;;;;;;;;;9.75;9.00;;;;;20.22;100.00;102331.22;5037810;28;46121;-83
2021/10/08 01:37:47;;;;;;;;;8.50;8.25;;;;;20.16;100.00;102329.91;5053201;28;45180;-83
2021/10/08 01:40:13;;;;;;;;;13.50;10.25;;;;;20.08;100.00;102340.41;5040092;28;45385;-83
2021/10/08 01:42:40;;;;;;;;;11.50;10.00;;;;;20.05;100.00;102337.13;5047301;28;45727;-83
2021/10/08 01:45:08;;;;;;;;;13.25;10.75;;;;;19.94;100.00;102324.59;5037509;28;45457;-83
2021/10/08 01:47:34;;;;;;;;;9.25;9.00;;;;;20.04;100.00;102328.22;5037709;28;45358;-83
2021/10/08 01:49:59;;;;;;;;;16.00;9.50;;;;;20.08;100.00;102334.19;5037919;28;45304;-83
2021/10/08 01:52:25;;;;;;;;;12.50;11.50;;;;;20.07;100.00;102335.19;5037944;28;45475;-83
2021/10/08 01:54:50;;;;;;;;;12.00;9.75;;;;;20.01;100.00;102335.69;5048980;28;47133;-83
2021/10/08 01:57:17;;;;;;;;;11.00;10.75;;;;;19.99;100.00;102329.59;5037751;28;45378;-83
2021/10/08 01:59:43;;;;;;;;;14.75;11.25;;;;;20.03;100.00;102331.06;5037712;27;45549;-83
2021/10/08 02:02:09;;;;;;;;;12.00;10.00;;;;;19.97;100.00;102332.41;5037364;28;45357;-83
2021/10/08 02:04:34;;;;;;;;;14.50;9.25;;;;;19.91;100.00;102332.91;5033600;28;48086;-83
2021/10/08 02:07:00;;;;;;;;;12.50;11.00;;;;;19.93;100.00;102338.16;5036223;28;46050;-83
2021/10/08 02:09:25;;;;;;;;;16.50;11.50;;;;;19.86;100.00;102324.38;5049799;28;45474;-83
2021/10/08 02:11:51;;;;;;;;;11.75;11.75;;;;;19.85;100.00;102333.38;5036269;28;45344;-83
2021/10/08 02:14:16;;;;;;;;;11.25;8.75;;;;;19.79;100.00;102323.16;5038540;28;47178;-83
2021/10/08 02:16:42;;;;;;;;;12.00;10.25;;;;;19.81;100.00;102331.94;5038792;28;45456;-83
2021/10/08 02:19:08;;;;;;;;;16.25;13.00;;;;;19.78;100.00;102333.03;5041252;28;45421;-83
2021/10/08 02:21:33;;;;;;;;;16.25;11.25;;;;;19.59;100.00;102324.78;5039953;27;45333;-83
2021/10/08 02:23:59;;;;;;;;;21.25;16.50;;;;;19.58;100.00;102328.44;5038821;28;47343;-83
2021/10/08 02:26:25;;;;;;;;;19.00;18.75;;;;;19.56;100.00;102330.41;5037664;28;45321;-83
2021/10/08 02:28:51;;;;;;;;;20.75;18.75;;;;;19.55;100.00;102322.50;5037054;28;45356;-83
2021/10/08 02:31:16;;;;;;;;;22.00;17.25;;;;;19.52;100.00;102325.41;5037322;28;45258;-83
2021/10/08 02:33:43;;;;;;;;;18.25;11.75;;;;;19.52;100.00;102334.28;5033413;28;45325;-83
2021/10/08 02:36:09;;;;;;;;;15.75;14.00;;;;;19.49;100.00;102334.53;5037360;28;45370;-83
2021/10/08 02:38:36;;;;;;;;;16.00;15.25;;;;;19.46;100.00;102315.16;5037383;28;45405;-83
2021/10/08 02:41:02;;;;;;;;;12.75;12.00;;;;;19.41;100.00;102321.72;5037274;28;45443;-83
2021/10/08 02:43:27;;;;;;;;;13.00;10.50;;;;;19.45;100.00;102335.72;5036838;28;46094;-83
2021/10/08 02:45:53;;;;;;;;;13.00;9.25;;;;;19.43;100.00;102335.84;5037227;28;45344;-83
2021/10/08 02:48:18;;;;;;;;;13.50;10.75;;;;;19.36;100.00;102336.47;5035892;28;45318;-83
2021/10/08 02:50:44;;;;;;;;;14.00;13.00;;;;;19.41;100.00;102332.44;5037320;28;45299;-83
2021/10/08 02:53:10;;;;;;;;;10.75;10.50;;;;;19.38;100.00;102329.16;5036928;28;45329;-83
2021/10/08 02:55:35;;;;;;;;;13.75;9.00;;;;;19.35;100.00;102332.94;5037273;28;45444;-83
2021/10/08 02:58:01;;;;;;;;;11.75;10.00;;;;;19.34;100.00;102341.94;5038272;28;45312;-84
2021/10/08 03:00:27;;;;;;;;;17.00;11.25;;;;;19.29;100.00;102328.06;5041079;27;45325;-84
2021/10/08 03:02:52;;;;;;;;;12.25;10.00;;;;;19.24;100.00;102327.56;5028635;28;45623;-83
2021/10/08 03:05:18;;;;;;;;;12.75;10.50;;;;;19.32;100.00;102327.81;5030631;28;45447;-83
2021/10/08 03:07:43;;;;;;;;;16.25;10.50;;;;;19.29;100.00;102329.91;5028698;28;45503;-83
2021/10/08 03:10:10;;;;;;;;;14.00;11.75;;;;;19.26;100.00;102324.78;5036787;28;45375;-83
2021/10/08 03:12:35;;;;;;;;;15.00;11.50;;;;;19.27;100.00;102337.19;5033827;28;46077;-83
2021/10/08 03:15:02;;;;;;;;;15.00;12.25;;;;;19.25;100.00;102328.41;5029776;28;45384;-83
2021/10/08 03:17:28;;;;;;;;;10.00;7.00;;;;;19.18;100.00;102327.19;5034032;28;45356;-83
2021/10/08 03:19:53;;;;;;;;;11.00;10.00;;;;;19.15;100.00;102327.44;5036576;28;45556;-83
2021/10/08 03:22:18;;;;;;;;;11.00;9.00;;;;;19.16;100.00;102331.81;5030118;28;45335;-83
2021/10/08 03:24:44;;;;;;;;;14.25;12.00;;;;;19.15;100.00;102336.31;5039120;28;45447;-83
2021/10/08 03:27:10;;;;;;;;;13.50;11.25;;;;;19.12;100.00;102336.56;5032535;28;46740;-83
2021/10/08 03:29:35;;;;;;;;;13.25;12.25;;;;;19.11;100.00;102342.06;5033404;28;45483;-83
2021/10/08 03:32:01;;;;;;;;;16.25;12.50;;;;;19.01;100.00;102336.56;5025439;28;46150;-83
2021/10/08 03:34:26;;;;;;;;;15.75;10.50;;;;;19.01;100.00;102336.56;5035758;28;45371;-83
2021/10/08 03:36:54;;;;;;;;;14.75;11.50;;;;;18.97;100.00;102337.75;5047967;28;45435;-83
2021/10/08 03:39:25;;;;;;;;;15.00;10.75;;;;;18.97;100.00;102345.78;5039623;28;45423;-83
2021/10/08 03:41:52;;;;;;;;;21.25;10.75;;;;;18.94;100.00;102341.50;5053423;28;47448;-83
2021/10/08 03:44:18;;;;;;;;;13.00;13.00;;;;;18.92;100.00;102334.59;5038419;28;45405;-82
2021/10/08 03:46:47;;;;;;;;;15.25;12.75;;;;;18.98;100.00;102339.47;5050584;28;45416;-83
2021/10/08 03:49:15;;;;;;;;;15.00;12.00;;;;;18.90;100.00;102339.22;5046172;28;45169;-83
2021/10/08 03:51:43;;;;;;;;;14.75;13.50;;;;;18.89;100.00;102334.81;5040577;28;47103;-83
2021/10/08 03:54:09;;;;;;;;;15.00;15.00;;;;;18.85;100.00;102336.88;5053376;28;45406;-83
2021/10/08 03:56:34;;;;;;;;;15.75;12.25;;;;;18.85;100.00;102330.66;5058610;27;44909;-82
2021/10/08 03:58:59;;;;;;;;;13.25;12.25;;;;;18.86;100.00;102343.94;5056851;27;44776;-83
2021/10/08 04:01:26;;;;;;;;;15.00;14.50;;;;;18.83;100.00;102343.34;5055502;28;46116;-83
2021/10/08 04:03:51;;;;;;;;;16.25;12.75;;;;;18.82;100.00;102336.28;5042353;28;45250;-83
2021/10/08 04:06:17;;;;;;;;;15.00;14.25;;;;;18.79;100.00;102340.03;5039650;28;45657;-82
2021/10/08 04:08:43;;;;;;;;;19.00;16.50;;;;;18.78;100.00;102340.16;5034327;28;45503;-82
2021/10/08 04:11:09;;;;;;;;;16.75;15.00;;;;;18.80;100.00;102347.09;5044702;28;46390;-83
2021/10/08 04:13:35;;;;;;;;;17.00;11.75;;;;;18.79;100.00;102352.56;5048070;28;45179;-83
2021/10/08 04:16:01;;;;;;;;;18.25;13.50;;;;;18.71;100.00;102350.47;5040876;28;45363;-83
2021/10/08 04:18:26;;;;;;;;;17.25;15.75;;;;;18.72;100.00;102343.31;5038721;28;45628;-83
2021/10/08 04:20:52;;;;;;;;;17.75;15.00;;;;;18.77;100.00;102347.31;5039349;28;45428;-83
2021/10/08 04:23:17;;;;;;;;;18.00;12.25;;;;;18.72;100.00;102352.19;5045193;28;45260;-83
2021/10/08 04:25:43;;;;;;;;;14.50;14.00;;;;;18.66;100.00;102350.81;5057336;28;45421;-83
2021/10/08 04:28:09;;;;;;;;;19.00;14.50;;;;;18.70;100.00;102351.44;5047403;28;45310;-83
2021/10/08 04:30:35;;;;;;;;;19.50;15.25;;;;;18.68;100.00;102353.38;5056561;28;46014;-83
2021/10/08 04:33:00;;;;;;;;;18.00;15.75;;;;;18.69;100.00;102350.59;5043807;28;45438;-84
2021/10/08 04:35:26;;;;;;;;;17.25;14.25;;;;;18.67;100.00;102354.34;5047136;28;45360;-83
2021/10/08 04:37:51;;;;;;;;;16.00;15.00;;;;;18.65;100.00;102354.47;5048175;28;45418;-83
2021/10/08 04:40:17;;;;;;;;;16.75;16.75;;;;;18.63;100.00;102343.03;5048105;28;45952;-83
2021/10/08 04:42:42;;;;;;;;;18.75;15.75;;;;;18.63;100.00;102348.38;5042327;28;45252;-84
2021/10/08 04:45:08;;;;;;;;;19.00;16.00;;;;;18.63;100.00;102348.38;5038828;28;45709;-84
2021/10/08 04:47:34;;;;;;;;;17.50;14.50;;;;;18.74;100.00;102349.41;5039990;28;45237;-83
2021/10/08 04:49:59;;;;;;;;;19.00;16.00;;;;;18.66;100.00;102339.28;5039487;28;46513;-84
2021/10/08 04:52:25;;;;;;;;;24.75;15.50;;;;;18.71;100.00;102349.63;5041026;28;45408;-84
2021/10/08 04:54:50;;;;;;;;;16.50;15.00;;;;;18.64;100.00;102344.75;5043153;28;45325;-84
2021/10/08 04:57:15;;;;;;;;;26.25;20.25;;;;;18.63;100.00;102355.56;5043312;28;45213;-83
2021/10/08 04:59:41;;;;;;;;;19.50;16.75;;;;;18.58;100.00;102342.50;5039932;27;46076;-83
2021/10/08 05:02:06;;;;;;;;;20.00;17.75;;;;;18.56;100.00;102352.47;5036765;28;45427;-83
2021/10/08 05:04:32;;;;;;;;;21.25;16.75;;;;;18.48;100.00;102349.50;5048711;28;45215;-83
2021/10/08 05:06:57;;;;;;;;;18.25;18.00;;;;;18.47;100.00;102347.81;5044464;28;45219;-83
2021/10/08 05:09:23;;;;;;;;;26.50;22.50;;;;;18.58;100.00;102350.53;5043288;28;45317;-84
2021/10/08 05:11:48;;;;;;;;;24.00;19.50;;;;;18.61;100.00;102344.13;5033848;28;45479;-84
2021/10/08 05:14:14;;;;;;;;;21.75;18.75;;;;;18.57;100.00;102351.50;5035791;28;45443;-83
2021/10/08 05:16:40;;;;;;;;;26.50;20.25;;;;;18.54;100.00;102351.72;5052320;28;45726;-83
2021/10/08 05:19:06;;;;;;;;;23.25;21.75;;;;;18.54;100.00;102346.38;5039172;28;45493;-84
2021/10/08 05:21:33;;;;;;;;;21.50;21.00;;;;;18.50;100.00;102360.94;5030718;28;45436;-83
2021/10/08 05:23:59;;;;;;;;;24.75;20.25;;;;;18.41;100.00;102364.31;5039202;28;45499;-83
2021/10/08 05:26:24;;;;;;;;;19.00;19.00;;;;;18.37;100.00;102359.31;5038700;28;45552;-84
2021/10/08 05:28:50;;;;;;;;;26.25;22.25;;;;;18.39;100.00;102355.53;5045507;28;45354;-83
2021/10/08 05:31:15;;;;;;;;;21.25;17.75;;;;;18.39;100.00;102363.56;5114092;27;45451;-83
2021/10/08 05:33:41;;;;;;;;;22.00;19.25;;;;;18.43;100.00;102353.50;5039410;28;45265;-84
2021/10/08 05:36:06;;;;;;;;;26.00;20.50;;;;;18.45;100.00;102362.25;5027838;28;45235;-83
2021/10/08 05:38:31;;;;;;;;;24.75;18.50;;;;;18.35;100.00;102359.44;5047287;28;45493;-83
2021/10/08 05:40:57;;;;;;;;;25.25;21.25;;;;;18.32;100.00;102355.16;5041888;28;45281;-83
2021/10/08 05:43:22;;;;;;;;;32.75;18.00;;;;;18.43;100.00;102361.53;5045750;28;45356;-85
2021/10/08 05:45:48;;;;;;;;;25.75;20.25;;;;;18.41;100.00;102358.09;5045443;28;45289;-85
2021/10/08 05:48:14;;;;;;;;;17.50;17.50;;;;;18.45;100.00;102352.41;5043371;28;45478;-84
2021/10/08 05:50:40;;;;;;;;;22.25;20.25;;;;;18.50;100.00;102368.97;5042697;28;45412;-83
2021/10/08 05:53:09;;;;;;;;;24.25;22.00;;;;;18.46;100.00;102361.31;5037572;28;45373;-84
2021/10/08 05:55:35;;;;;;;;;23.00;19.50;;;;;18.44;100.00;102361.41;5040500;28;45550;-83
2021/10/08 05:58:01;;;;;;;;;13.00;10.50;;;;;18.41;100.00;102360.78;5035271;28;45611;-82
2021/10/08 06:00:26;;;;;;;;;25.50;23.75;;;;;18.41;100.00;102368.81;5038636;28;45253;-84
2021/10/08 06:02:52;;;;;;;;;24.00;20.50;;;;;18.46;100.00;102369.31;5043965;28;45224;-82
2021/10/08 06:05:19;;;;;;;;;21.25;16.75;;;;;18.44;100.00;102372.13;5023447;28;45577;-84
2021/10/08 06:07:44;;;;;;;;;25.00;20.75;;;;;18.43;100.00;102373.06;5033248;27;47404;-83
2021/10/08 06:10:10;;;;;;;;;28.25;23.25;;;;;18.42;100.00;102375.84;5047818;28;45366;-83
2021/10/08 06:12:35;;;;;;;;;26.25;21.00;;;;;18.35;100.00;102364.78;5049014;28;45407;-82
2021/10/08 06:15:02;;;;;;;;;33.00;22.75;;;;;18.38;100.00;102377.06;5046244;28;45341;-81
2021/10/08 06:17:27;;;;;;;;;26.75;23.25;;;;;18.38;100.00;102380.59;5052658;28;44992;-81
2021/10/08 06:19:52;;;;;;;;;24.25;19.75;;;;;18.33;100.00;102382.75;5038467;28;46169;-82
2021/10/08 06:22:18;;;;;;;;;23.00;21.25;;;;;18.30;100.00;102377.63;5043689;28;45308;-83
2021/10/08 06:24:43;;;;;;;;;27.75;18.00;;;;;18.32;100.00;102386.38;5039552;28;45320;-83
2021/10/08 06:27:08;;;;;;;;;18.25;18.25;;;;;18.36;100.00;102387.03;5036957;28;45490;-83
2021/10/08 06:29:34;;;;;;;;;27.25;22.75;;;;;18.32;100.00;102383.72;5037066;28;45367;-83
2021/10/08 06:31:59;;;;;;;;;23.25;19.50;;;;;18.28;100.00;102379.56;5037387;28;45537;-83
2021/10/08 06:34:25;;;;;;;;;22.50;19.00;;;;;18.37;100.00;102383.38;5037208;28;45646;-83
2021/10/08 06:36:50;;;;;;;;;31.50;20.50;;;;;18.30;100.00;102382.97;5037065;28;46204;-82
2021/10/08 06:39:15;;;;;;;;;26.25;17.50;;;;;18.37;100.00;102388.75;5037439;28;45350;-80
2021/10/08 06:41:41;;;;;;;;;23.00;21.50;;;;;18.34;100.00;102397.84;5037088;28;45373;-81
2021/10/08 06:44:06;;;;;;;;;23.75;20.50;;;;;18.31;100.00;102388.22;5032241;28;45573;-82
2021/10/08 06:46:32;;;;;;;;;31.50;22.25;;;;;18.38;100.00;102393.13;5031105;28;45584;-83
2021/10/08 06:48:57;;;;;;;;;28.00;19.75;;;;;18.38;100.00;102383.28;5034379;28;45304;-83
2021/10/08 06:51:22;;;;;;;;;26.25;22.25;;;;;18.52;100.00;102401.81;5035997;28;45475;-82
2021/10/08 06:53:48;;;;;;;;;24.75;19.50;;;;;18.59;100.00;102391.53;5036931;28;45358;-81
2021/10/08 06:56:13;;;;;;;;;23.25;22.25;;;;;18.61;100.00;102403.84;5035656;28;46087;-81
2021/10/08 06:58:39;;;;;;;;;25.50;23.00;;;;;18.55;100.00;102395.38;5030384;27;45420;-81
2021/10/08 07:01:04;;;;;;;;;27.75;25.50;;;;;18.62;100.00;102402.00;5036691;28;45782;-81
2021/10/08 07:03:29;;;;;;;;;32.00;22.50;;;;;18.66;100.00;102409.69;5027764;28;45915;-81
2021/10/08 07:05:55;;;;;;;;;30.75;21.75;;;;;18.67;100.00;102400.69;5031392;28;45509;-81
2021/10/08 07:08:20;;;;;;;;;23.75;20.50;;;;;18.73;100.00;102406.56;5036422;28;45404;-80
2021/10/08 07:10:46;;;;;;;;;20.25;18.25;;;;;18.74;100.00;102403.78;5037002;28;45495;-82
2021/10/08 07:13:11;;;;;;;;;30.75;26.00;;;;;18.76;100.00;102409.84;5036898;28;45384;-81
2021/10/08 07:15:37;;;;;;;;;22.75;19.00;;;;;18.86;100.00;102410.84;5036657;28;46321;-82
2021/10/08 07:18:03;;;;;;;;;29.00;23.00;;;;;18.87;100.00;102417.91;5035180;28;45330;-81
2021/10/08 07:20:29;;;;;;;;;24.75;21.25;;;;;18.86;100.00;102408.19;5036950;28;45435;-80
2021/10/08 07:22:56;;;;;;;;;25.50;22.75;;;;;18.87;100.00;102425.09;5034480;28;45319;-81
2021/10/08 07:25:25;;;;;;;;;26.25;18.25;;;;;18.93;100.00;102416.63;5032184;28;45304;-81
2021/10/08 07:27:51;;;;;;;;;25.25;20.75;;;;;18.94;100.00;102419.16;5036536;28;45330;-80
2021/10/08 07:30:17;;;;;;;;;33.50;25.00;;;;;18.98;100.00;102417.09;5042361;28;45501;-82
2021/10/08 07:32:43;;;;;;;;;30.75;22.25;;;;;19.21;100.00;102418.03;5047834;28;45394;-81
2021/10/08 07:35:09;;;;;;;;;30.25;23.00;;;;;20.51;100.00;102420.06;5036047;28;45603;-81
2021/10/08 07:37:37;;;;;;;;;28.50;23.00;;;;;21.97;100.00;102419.06;5036668;28;45267;-82
2021/10/08 07:40:04;;;;;;;;;27.75;25.00;;;;;23.39;100.00;102411.31;5051146;28;45344;-81
2021/10/08 07:43:22;;;;;;;;;24.50;21.50;;;;;24.62;100.00;102409.97;5035711;28;45474;-81
2021/10/08 07:45:54;;;;;;;;;22.25;21.75;;;;;25.99;100.00;102412.75;5028497;28;45432;-82
2021/10/08 07:48:19;;;;;;;;;23.75;20.25;;;;;27.01;100.00;102398.06;5052214;28;45458;-82
2021/10/08 07:50:45;;;;;;;;;25.75;20.00;;;;;27.95;100.00;102405.44;5037203;28;45421;-82
2021/10/08 07:53:10;;;;;;;;;26.00;20.50;;;;;28.59;100.00;102398.75;5037055;28;45361;-82
2021/10/08 07:55:35;;;;;;;;;23.50;22.00;;;;;29.23;96.89;102393.78;5036072;28;46007;-81
2021/10/08 07:58:01;;;;;;;;;24.00;20.50;;;;;29.78;90.25;102398.78;5031043;28;45347;-81
2021/10/08 08:00:26;;;;;;;;;23.25;20.75;;;;;30.49;85.43;102400.69;5038285;27;45676;-81
2021/10/08 08:02:52;;;;;;;;;24.75;21.00;;;;;30.93;81.72;102398.78;5038573;28;45499;-83
2021/10/08 08:05:17;;;;;;;;;23.00;20.00;;;;;31.50;78.69;102390.41;5038862;28;45695;-82
2021/10/08 08:07:43;;;;;;;;;28.50;24.50;;;;;32.04;76.30;102397.81;5042564;28;45000;-82
2021/10/08 08:10:10;;;;;;;;;24.00;21.50;;;;;32.45;70.86;102397.72;5039264;28;45285;-82
2021/10/08 08:12:36;;;;;;;;;24.00;21.25;;;;;33.00;68.89;102391.88;5038329;28;45406;-82
2021/10/08 08:15:03;;;;;;;;;22.25;19.50;;;;;33.57;66.16;102397.69;5036638;28;46227;-82
2021/10/08 08:17:28;;;;;;;;;22.50;21.50;;;;;34.00;64.88;102395.19;5036916;28;45435;-82
2021/10/08 08:19:54;;;;;;;;;29.75;21.50;;;;;34.29;62.05;102397.38;5037864;28;45443;-82
2021/10/08 08:22:20;;;;;;;;;22.50;19.25;;;;;34.71;55.70;102394.97;5037108;28;45325;-82
2021/10/08 08:24:45;;;;;;;;;22.00;20.00;;;;;35.07;58.39;102391.50;5035045;28;47303;-82
2021/10/08 08:27:10;;;;;;;;;25.00;19.00;;;;;35.45;55.30;102391.34;5035089;28;45393;-82
2021/10/08 08:29:36;;;;;;;;;20.00;19.75;;;;;35.69;52.04;102392.34;5035703;28;45450;-82
2021/10/08 08:32:02;;;;;;;;;20.50;18.25;;;;;35.69;52.16;102397.84;5035996;28;45510;-82
2021/10/08 08:34:27;;;;;;;;;24.25;21.50;;;;;35.97;51.22;102400.84;5035311;28;45422;-82
2021/10/08 08:36:53;;;;;;;;;19.00;17.25;;;;;36.51;49.88;102401.81;5035933;28;45289;-82
2021/10/08 08:39:20;;;;;;;;;23.25;18.75;;;;;36.82;48.71;102404.25;5035789;28;45551;-80
2021/10/08 08:41:45;;;;;;;;;19.25;17.50;;;;;36.82;44.71;102393.25;5027072;28;45433;-80
2021/10/08 08:44:11;;;;;;;;;19.50;17.50;;;;;37.07;46.57;102391.09;5035377;28;46469;-80
2021/10/08 08:46:36;;;;;;;;;18.25;17.75;;;;;37.04;45.40;102399.84;5037734;28;45422;-80
2021/10/08 08:49:03;;;;;;;;;17.75;14.75;;;;;37.04;43.62;102399.84;5045185;28;45334;-80
2021/10/08 08:51:28;;;;;;;;;23.50;18.50;;;;;37.31;41.62;102394.72;5038595;28;45570;-80
2021/10/08 08:54:01;;;;;;;;;21.50;17.75;;;;;37.59;42.39;102390.34;5037186;28;48067;-80
2021/10/08 08:56:28;;;;;;;;;17.50;16.00;;;;;37.90;41.56;102398.16;5038661;28;45551;-80
2021/10/08 08:58:58;;;;;;;;;19.00;14.50;;;;;38.06;39.77;102391.06;5026730;27;45534;-80
2021/10/08 09:01:23;;;;;;;;;16.25;16.00;;;;;38.34;37.46;102398.47;5038791;28;45657;-80
2021/10/08 09:04:00;;;;;;;;;18.25;16.25;;;;;38.53;39.67;102388.88;5037892;28;45335;-80
2021/10/08 09:06:32;;;;;;;;;18.75;17.50;;;;;38.60;37.63;102394.28;5039818;28;45632;-80
2021/10/08 09:08:57;;;;;;;;;16.00;13.75;;;;;38.48;37.85;102394.31;5046912;27;45480;-80
2021/10/08 09:11:36;;;;;;;;;21.00;16.25;;;;;38.76;38.20;102390.66;5038641;28;45310;-80
2021/10/08 09:14:21;;;;;;;;;13.00;13.00;;;;;38.84;36.31;102396.59;5037968;28;45399;-80
2021/10/08 09:17:09;;;;;;;;;14.50;13.50;;;;;38.78;35.18;102394.84;5036872;28;45551;-80
2021/10/08 09:19:53;;;;;;;;;19.00;16.25;;;;;38.75;35.41;102386.22;5038107;28;45492;-80
2021/10/08 09:22:32;;;;;;;;;16.75;14.00;;;;;38.53;34.22;102383.38;5038318;28;45497;-80
2021/10/08 09:25:12;;;;;;;;;17.25;15.50;;;;;38.38;34.92;102385.84;5037885;28;46236;-80
2021/10/08 09:27:39;;;;;;;;;13.50;12.00;;;;;38.21;34.84;102393.28;5038211;28;45526;-80
2021/10/08 09:30:05;;;;;;;;;12.25;12.25;;;;;37.85;34.83;102392.56;5038487;28;45366;-80
2021/10/08 09:32:44;;;;;;;;;17.50;14.25;;;;;37.26;34.82;102380.81;5038087;28;45549;-80
2021/10/08 09:35:12;;;;;;;;;14.50;14.25;;;;;36.87;35.62;102373.28;5026850;28;47073;-80
2021/10/08 09:37:38;;;;;;;;;17.50;14.00;;;;;36.18;35.87;102377.50;5037884;28;45550;-80
2021/10/08 09:40:20;;;;;;;;;13.25;13.25;;;;;35.67;37.22;102377.97;5038395;28;45450;-80
2021/10/08 09:42:45;;;;;;;;;15.00;13.50;;;;;35.22;37.15;102375.50;5037793;28;45472;-80
2021/10/08 09:45:11;;;;;;;;;16.75;13.00;;;;;35.02;38.45;102372.13;5053350;28;46179;-80
2021/10/08 09:47:36;;;;;;;;;15.25;12.75;;;;;34.58;39.16;102365.75;5038194;28;45242;-81
2021/10/08 09:50:11;;;;;;;;;16.00;14.00;;;;;34.07;39.66;102371.31;5038713;28;45277;-80
2021/10/08 09:52:37;;;;;;;;;11.00;10.25;;;;;33.95;39.72;102362.13;5038214;28;45339;-80
2021/10/08 09:55:11;;;;;;;;;13.25;11.75;;;;;33.74;40.19;102363.28;5037824;28;46218;-81
2021/10/08 09:57:49;;;;;;;;;8.50;8.50;;;;;33.31;40.49;102368.47;5030804;28;45146;-81
2021/10/08 10:00:49;;;;;;;;;7.75;6.75;;;;;32.99;39.83;102349.13;5035579;27;45464;-81
2021/10/08 10:03:17;;;;;;;;;7.75;5.25;;;;;32.70;41.44;102352.31;5039688;28;45370;-81
2021/10/08 10:05:43;;;;;;;;;6.75;6.75;;;;;32.68;40.81;102349.78;5037847;28;45670;-81
2021/10/08 10:08:08;;;;;;;;;7.75;7.75;;;;;32.53;41.38;102356.47;5037750;28;45467;-81
2021/10/08 10:10:36;;;;;;;;;10.00;8.50;;;;;32.40;41.59;102349.13;5037990;28;45643;-81
2021/10/08 10:13:04;;;;;;;;;10.50;7.50;;;;;32.41;42.00;102352.72;5036183;28;45506;-82
2021/10/08 10:15:29;;;;;;;;;8.50;6.75;;;;;32.28;42.66;102340.69;5037504;28;46196;-81
2021/10/08 10:17:57;;;;;;;;;6.25;6.25;;;;;32.15;42.45;102343.34;5036043;28;45912;-82
2021/10/08 10:20:22;;;;;;;;;6.25;4.75;;;;;32.13;43.30;102336.44;5037863;28;45300;-81
2021/10/08 10:22:48;;;;;;;;;6.75;6.00;;;;;32.01;42.77;102340.81;5037286;28;45300;-82
2021/10/08 10:25:14;;;;;;;;;7.50;6.00;;;;;31.98;41.22;102334.72;5037669;28;46216;-82
2021/10/08 10:27:41;;;;;;;;;8.00;7.00;;;;;31.85;42.53;102337.41;5037429;28;45321;-81
2021/10/08 10:30:09;;;;;;;;;9.50;6.25;;;;;31.81;42.46;102338.03;5038185;28;45573;-81
2021/10/08 10:32:36;;;;;;;;;6.50;5.00;;;;;31.78;43.18;102333.81;5037581;28;45423;-81
2021/10/08 10:35:03;;;;;;;;;5.75;5.75;;;;;31.59;43.22;102329.09;5037655;28;46446;-81
2021/10/08 10:37:41;;;;;;;;;4.50;4.50;;;;;31.59;43.85;102346.31;5037285;28;45303;-82
2021/10/08 10:40:18;;;;;;;;;7.50;6.00;;;;;31.54;43.05;102334.31;5027418;28;45470;-82
2021/10/08 10:42:44;;;;;;;;;8.25;7.00;;;;;31.47;44.06;102341.63;5044568;28;45548;-81
2021/10/08 10:45:17;;;;;;;;;6.25;6.25;;;;;31.40;44.53;102338.03;5031257;28;46425;-81
2021/10/08 10:47:45;;;;;;;;;4.75;4.25;;;;;31.43;43.77;102337.63;5030343;28;45553;-81
2021/10/08 10:50:27;;;;;;;;;5.25;5.25;;;;;31.33;44.80;102339.88;5035829;28;45268;-81
2021/10/08 10:52:55;;;;;;;;;5.00;5.00;;;;;31.26;44.50;102331.66;5029308;28;45453;-81
2021/10/08 10:55:23;;;;;;;;;5.50;5.50;;;;;31.26;45.26;102331.66;5049801;28;47265;-81
2021/10/08 10:57:58;;;;;;;;;7.00;5.75;;;;;31.20;44.78;102336.03;5027217;28;45449;-81
2021/10/08 11:00:27;;;;;;;;;7.25;7.00;;;;;31.09;45.41;102327.56;5033312;27;45397;-81
2021/10/08 11:03:17;;;;;;;;;9.00;7.75;;;;;31.12;44.52;102329.91;5035922;28;45601;-81
2021/10/08 11:06:10;;;;;;;;;7.50;5.25;;;;;31.17;45.62;102328.25;5013052;28;47042;-81